sensor_id;sensor_type;location;lat;lon;timestamp;pressure;altitude;pressure_sealevel;temperature;humidity
59154;BME280;44935;48.944;9.418;2023-01-31T00:01:50;99540.05;;;1.13;59.81
59154;BME280;44935;48.944;9.418;2023-01-31T00:04:17;99539.82;;;1.16;59.31
59154;BME280;44935;48.944;9.418;2023-01-31T00:06:45;99532.88;;;0.71;60.59
59154;BME280;44935;48.944;9.418;2023-01-31T00:09:12;99532.01;;;0.70;60.88
59154;BME280;44935;48.944;9.418;2023-01-31T00:11:39;99532.55;;;1.22;60.25
59154;BME280;44935;48.944;9.418;2023-01-31T00:14:07;99530.71;;;0.76;60.97
59154;BME280;44935;48.944;9.418;2023-01-31T00:16:35;99535.01;;;0.79;60.89
59154;BME280;44935;48.944;9.418;2023-01-31T00:19:02;99534.61;;;0.88;60.42
59154;BME280;44935;48.944;9.418;2023-01-31T00:21:30;99528.09;;;1.37;59.55
59154;BME280;44935;48.944;9.418;2023-01-31T00:23:58;99527.43;;;1.26;60.03
59154;BME280;44935;48.944;9.418;2023-01-31T00:26:27;99528.43;;;1.44;58.65
59154;BME280;44935;48.944;9.418;2023-01-31T00:28:55;99529.64;;;1.02;59.88
59154;BME280;44935;48.944;9.418;2023-01-31T00:31:24;99535.69;;;1.55;58.32
59154;BME280;44935;48.944;9.418;2023-01-31T00:33:53;99534.04;;;1.25;58.50
59154;BME280;44935;48.944;9.418;2023-01-31T00:36:22;99534.54;;;1.86;57.68
59154;BME280;44935;48.944;9.418;2023-01-31T00:38:52;99537.49;;;1.79;57.45
59154;BME280;44935;48.944;9.418;2023-01-31T00:41:21;99538.54;;;2.37;55.86
59154;BME280;44935;48.944;9.418;2023-01-31T00:43:49;99545.26;;;1.56;57.19
59154;BME280;44935;48.944;9.418;2023-01-31T00:46:16;99552.24;;;1.65;56.82
59154;BME280;44935;48.944;9.418;2023-01-31T00:48:44;99549.15;;;2.16;56.12
59154;BME280;44935;48.944;9.418;2023-01-31T00:51:11;99548.86;;;2.37;55.87
59154;BME280;44935;48.944;9.418;2023-01-31T00:53:38;99551.04;;;2.01;55.51
59154;BME280;44935;48.944;9.418;2023-01-31T00:56:07;99546.46;;;2.63;54.34
59154;BME280;44935;48.944;9.418;2023-01-31T00:58:36;99545.53;;;2.10;55.00
59154;BME280;44935;48.944;9.418;2023-01-31T01:01:06;99544.15;;;2.68;53.71
59154;BME280;44935;48.944;9.418;2023-01-31T01:03:34;99547.75;;;1.81;55.25
59154;BME280;44935;48.944;9.418;2023-01-31T01:06:03;99549.97;;;3.15;53.00
59154;BME280;44935;48.944;9.418;2023-01-31T01:08:31;99549.80;;;2.83;52.12
59154;BME280;44935;48.944;9.418;2023-01-31T01:11:04;99548.20;;;2.83;52.88
59154;BME280;44935;48.944;9.418;2023-01-31T01:13:31;99544.28;;;2.42;53.45
59154;BME280;44935;48.944;9.418;2023-01-31T01:16:04;99546.55;;;2.26;53.72
59154;BME280;44935;48.944;9.418;2023-01-31T01:18:31;99547.87;;;1.85;54.73
59154;BME280;44935;48.944;9.418;2023-01-31T01:21:04;99548.83;;;1.86;55.85
59154;BME280;44935;48.944;9.418;2023-01-31T01:23:32;99545.65;;;1.79;56.14
59154;BME280;44935;48.944;9.418;2023-01-31T01:25:59;99556.61;;;1.73;55.90
59154;BME280;44935;48.944;9.418;2023-01-31T01:28:26;99562.23;;;1.92;55.92
59154;BME280;44935;48.944;9.418;2023-01-31T01:30:52;99566.03;;;2.21;54.84
59154;BME280;44935;48.944;9.418;2023-01-31T01:33:19;99568.13;;;1.83;55.55
59154;BME280;44935;48.944;9.418;2023-01-31T01:35:46;99565.94;;;1.55;55.76
59154;BME280;44935;48.944;9.418;2023-01-31T01:38:14;99566.10;;;1.98;55.10
59154;BME280;44935;48.944;9.418;2023-01-31T01:40:41;99564.70;;;2.72;53.59
59154;BME280;44935;48.944;9.418;2023-01-31T01:43:09;99564.20;;;1.98;55.03
59154;BME280;44935;48.944;9.418;2023-01-31T01:45:37;99563.21;;;2.10;55.34
59154;BME280;44935;48.944;9.418;2023-01-31T01:48:06;99565.91;;;2.32;54.71
59154;BME280;44935;48.944;9.418;2023-01-31T01:50:37;99562.07;;;1.51;57.12
59154;BME280;44935;48.944;9.418;2023-01-31T01:53:09;99565.67;;;1.41;57.36
59154;BME280;44935;48.944;9.418;2023-01-31T01:55:41;99569.07;;;1.99;55.73
59154;BME280;44935;48.944;9.418;2023-01-31T01:58:15;99568.39;;;1.89;56.00
59154;BME280;44935;48.944;9.418;2023-01-31T02:00:46;99569.04;;;2.02;56.59
59154;BME280;44935;48.944;9.418;2023-01-31T02:03:15;99568.30;;;1.64;57.01
59154;BME280;44935;48.944;9.418;2023-01-31T02:05:45;99565.77;;;1.80;57.15
59154;BME280;44935;48.944;9.418;2023-01-31T02:08:16;99571.63;;;1.71;57.06
59154;BME280;44935;48.944;9.418;2023-01-31T02:10:47;99571.51;;;1.92;56.48
59154;BME280;44935;48.944;9.418;2023-01-31T02:13:16;99570.74;;;2.44;55.98
59154;BME280;44935;48.944;9.418;2023-01-31T02:15:43;99574.40;;;2.23;55.94
59154;BME280;44935;48.944;9.418;2023-01-31T02:18:12;99573.26;;;1.94;56.77
59154;BME280;44935;48.944;9.418;2023-01-31T02:21:04;99572.17;;;1.39;57.96
59154;BME280;44935;48.944;9.418;2023-01-31T02:24:02;99577.28;;;2.08;56.10
59154;BME280;44935;48.944;9.418;2023-01-31T02:27:10;99577.80;;;1.97;56.21
59154;BME280;44935;48.944;9.418;2023-01-31T02:29:53;99579.28;;;1.47;58.43
59154;BME280;44935;48.944;9.418;2023-01-31T02:32:56;99581.50;;;1.74;58.03
59154;BME280;44935;48.944;9.418;2023-01-31T02:35:35;99581.80;;;2.09;56.77
59154;BME280;44935;48.944;9.418;2023-01-31T02:38:15;99584.92;;;2.17;56.57
59154;BME280;44935;48.944;9.418;2023-01-31T02:40:48;99587.21;;;1.49;58.23
59154;BME280;44935;48.944;9.418;2023-01-31T02:43:22;99588.96;;;1.62;58.34
59154;BME280;44935;48.944;9.418;2023-01-31T02:45:55;99591.57;;;2.12;56.42
59154;BME280;44935;48.944;9.418;2023-01-31T02:48:34;99596.09;;;1.27;58.42
59154;BME280;44935;48.944;9.418;2023-01-31T02:51:07;99596.85;;;1.15;59.34
59154;BME280;44935;48.944;9.418;2023-01-31T02:53:43;99598.25;;;1.65;58.40
59154;BME280;44935;48.944;9.418;2023-01-31T02:56:18;99597.64;;;2.22;56.71
59154;BME280;44935;48.944;9.418;2023-01-31T02:58:53;99602.53;;;1.83;57.00
59154;BME280;44935;48.944;9.418;2023-01-31T03:01:27;99599.83;;;2.13;56.52
59154;BME280;44935;48.944;9.418;2023-01-31T03:03:57;99599.22;;;2.36;56.34
59154;BME280;44935;48.944;9.418;2023-01-31T03:06:59;99601.83;;;2.20;56.06
59154;BME280;44935;48.944;9.418;2023-01-31T03:09:34;99597.53;;;2.83;55.33
59154;BME280;44935;48.944;9.418;2023-01-31T03:12:16;99596.54;;;2.08;56.40
59154;BME280;44935;48.944;9.418;2023-01-31T03:14:47;99588.63;;;2.31;56.06
59154;BME280;44935;48.944;9.418;2023-01-31T03:17:25;99592.80;;;2.29;55.97
59154;BME280;44935;48.944;9.418;2023-01-31T03:20:05;99594.71;;;1.93;57.10
59154;BME280;44935;48.944;9.418;2023-01-31T03:22:35;99594.07;;;2.44;56.24
59154;BME280;44935;48.944;9.418;2023-01-31T03:25:06;99599.86;;;2.17;56.30
59154;BME280;44935;48.944;9.418;2023-01-31T03:27:34;99602.17;;;2.98;54.63
59154;BME280;44935;48.944;9.418;2023-01-31T03:30:09;99604.25;;;2.29;55.23
59154;BME280;44935;48.944;9.418;2023-01-31T03:32:42;99606.18;;;2.90;54.76
59154;BME280;44935;48.944;9.418;2023-01-31T03:35:11;99611.63;;;2.92;53.84
59154;BME280;44935;48.944;9.418;2023-01-31T03:37:45;99613.97;;;2.56;55.28
59154;BME280;44935;48.944;9.418;2023-01-31T03:40:19;99614.77;;;2.35;56.01
59154;BME280;44935;48.944;9.418;2023-01-31T03:42:51;99618.97;;;1.96;57.12
59154;BME280;44935;48.944;9.418;2023-01-31T03:45:26;99623.70;;;2.18;56.80
59154;BME280;44935;48.944;9.418;2023-01-31T03:47:56;99623.99;;;2.24;56.90
59154;BME280;44935;48.944;9.418;2023-01-31T03:50:27;99621.94;;;1.98;56.66
59154;BME280;44935;48.944;9.418;2023-01-31T03:52:59;99621.05;;;2.97;54.36
59154;BME280;44935;48.944;9.418;2023-01-31T03:55:32;99625.04;;;2.45;55.73
59154;BME280;44935;48.944;9.418;2023-01-31T03:58:01;99621.76;;;2.69;54.45
59154;BME280;44935;48.944;9.418;2023-01-31T04:00:32;99630.45;;;3.19;53.13
59154;BME280;44935;48.944;9.418;2023-01-31T04:03:08;99635.80;;;3.03;53.25
59154;BME280;44935;48.944;9.418;2023-01-31T04:05:36;99641.56;;;3.05;53.28
59154;BME280;44935;48.944;9.418;2023-01-31T04:08:03;99647.44;;;3.45;52.45
59154;BME280;44935;48.944;9.418;2023-01-31T04:10:31;99650.15;;;3.75;51.34
59154;BME280;44935;48.944;9.418;2023-01-31T04:12:58;99652.60;;;3.40;52.75
59154;BME280;44935;48.944;9.418;2023-01-31T04:15:25;99651.74;;;3.82;51.57
59154;BME280;44935;48.944;9.418;2023-01-31T04:17:52;99646.82;;;2.99;52.78
59154;BME280;44935;48.944;9.418;2023-01-31T04:20:19;99651.22;;;3.05;53.17
59154;BME280;44935;48.944;9.418;2023-01-31T04:22:46;99651.68;;;2.86;53.52
59154;BME280;44935;48.944;9.418;2023-01-31T04:25:13;99650.59;;;2.60;53.92
59154;BME280;44935;48.944;9.418;2023-01-31T04:27:40;99646.09;;;3.55;52.20
59154;BME280;44935;48.944;9.418;2023-01-31T04:30:07;99645.87;;;3.16;52.63
59154;BME280;44935;48.944;9.418;2023-01-31T04:32:35;99639.46;;;3.57;52.06
59154;BME280;44935;48.944;9.418;2023-01-31T04:35:02;99641.63;;;3.94;50.65
59154;BME280;44935;48.944;9.418;2023-01-31T04:37:29;99643.16;;;3.42;51.98
59154;BME280;44935;48.944;9.418;2023-01-31T04:39:56;99649.52;;;2.67;53.52
59154;BME280;44935;48.944;9.418;2023-01-31T04:42:23;99651.54;;;3.09;53.28
59154;BME280;44935;48.944;9.418;2023-01-31T04:44:51;99646.57;;;3.00;52.99
59154;BME280;44935;48.944;9.418;2023-01-31T04:47:18;99642.61;;;2.83;53.12
59154;BME280;44935;48.944;9.418;2023-01-31T04:49:45;99645.76;;;3.01;53.47
59154;BME280;44935;48.944;9.418;2023-01-31T04:52:12;99634.89;;;3.02;53.25
59154;BME280;44935;48.944;9.418;2023-01-31T04:54:39;99633.08;;;2.99;52.96
59154;BME280;44935;48.944;9.418;2023-01-31T04:57:06;99634.39;;;2.66;53.28
59154;BME280;44935;48.944;9.418;2023-01-31T04:59:32;99638.79;;;2.98;53.89
59154;BME280;44935;48.944;9.418;2023-01-31T05:02:00;99635.85;;;3.64;52.13
59154;BME280;44935;48.944;9.418;2023-01-31T05:04:27;99635.72;;;2.80;53.02
59154;BME280;44935;48.944;9.418;2023-01-31T05:06:54;99635.33;;;3.16;52.42
59154;BME280;44935;48.944;9.418;2023-01-31T05:09:21;99638.17;;;2.66;54.29
59154;BME280;44935;48.944;9.418;2023-01-31T05:11:48;99637.70;;;2.06;54.61
59154;BME280;44935;48.944;9.418;2023-01-31T05:14:15;99640.79;;;2.53;54.56
59154;BME280;44935;48.944;9.418;2023-01-31T05:16:42;99642.13;;;2.86;53.98
59154;BME280;44935;48.944;9.418;2023-01-31T05:19:09;99641.79;;;2.63;53.45
59154;BME280;44935;48.944;9.418;2023-01-31T05:21:36;99641.99;;;2.36;55.03
59154;BME280;44935;48.944;9.418;2023-01-31T05:24:03;99643.39;;;1.96;55.67
59154;BME280;44935;48.944;9.418;2023-01-31T05:26:30;99640.68;;;1.99;56.11
59154;BME280;44935;48.944;9.418;2023-01-31T05:28:57;99644.75;;;1.78;56.29
59154;BME280;44935;48.944;9.418;2023-01-31T05:31:24;99643.50;;;2.05;55.82
59154;BME280;44935;48.944;9.418;2023-01-31T05:33:51;99635.79;;;2.58;54.72
59154;BME280;44935;48.944;9.418;2023-01-31T05:36:18;99638.73;;;2.74;54.17
59154;BME280;44935;48.944;9.418;2023-01-31T05:38:45;99631.51;;;2.04;55.56
59154;BME280;44935;48.944;9.418;2023-01-31T05:41:12;99635.43;;;2.27;54.74
59154;BME280;44935;48.944;9.418;2023-01-31T05:43:39;99640.79;;;2.62;54.34
59154;BME280;44935;48.944;9.418;2023-01-31T05:46:06;99643.01;;;2.65;54.08
59154;BME280;44935;48.944;9.418;2023-01-31T05:48:32;99650.30;;;2.47;54.11
59154;BME280;44935;48.944;9.418;2023-01-31T05:50:59;99649.08;;;2.54;53.96
59154;BME280;44935;48.944;9.418;2023-01-31T05:53:26;99648.90;;;2.60;53.46
59154;BME280;44935;48.944;9.418;2023-01-31T05:55:53;99645.83;;;2.65;53.30
59154;BME280;44935;48.944;9.418;2023-01-31T05:58:20;99641.03;;;2.83;53.23
59154;BME280;44935;48.944;9.418;2023-01-31T06:00:47;99639.54;;;2.27;53.88
59154;BME280;44935;48.944;9.418;2023-01-31T06:03:14;99640.43;;;2.42;54.35
59154;BME280;44935;48.944;9.418;2023-01-31T06:05:40;99641.19;;;2.63;54.02
59154;BME280;44935;48.944;9.418;2023-01-31T06:08:07;99640.55;;;2.18;54.76
59154;BME280;44935;48.944;9.418;2023-01-31T06:10:34;99641.65;;;2.63;53.91
59154;BME280;44935;48.944;9.418;2023-01-31T06:13:01;99641.09;;;2.64;53.78
59154;BME280;44935;48.944;9.418;2023-01-31T06:15:28;99646.03;;;2.59;53.71
59154;BME280;44935;48.944;9.418;2023-01-31T06:17:55;99644.43;;;2.50;54.03
59154;BME280;44935;48.944;9.418;2023-01-31T06:20:22;99647.99;;;2.39;54.08
59154;BME280;44935;48.944;9.418;2023-01-31T06:22:49;99649.16;;;2.49;53.78
59154;BME280;44935;48.944;9.418;2023-01-31T06:25:21;99654.17;;;2.67;53.61
59154;BME280;44935;48.944;9.418;2023-01-31T06:27:48;99652.50;;;2.16;54.28
59154;BME280;44935;48.944;9.418;2023-01-31T06:30:15;99657.61;;;1.90;54.23
59154;BME280;44935;48.944;9.418;2023-01-31T06:32:42;99656.74;;;1.91;54.25
59154;BME280;44935;48.944;9.418;2023-01-31T06:35:09;99657.63;;;2.25;53.83
59154;BME280;44935;48.944;9.418;2023-01-31T06:37:36;99665.38;;;2.13;53.81
59154;BME280;44935;48.944;9.418;2023-01-31T06:40:03;99669.07;;;2.31;53.81
59154;BME280;44935;48.944;9.418;2023-01-31T06:42:31;99663.64;;;2.75;52.16
59154;BME280;44935;48.944;9.418;2023-01-31T06:44:57;99672.69;;;2.81;50.95
59154;BME280;44935;48.944;9.418;2023-01-31T06:47:25;99670.90;;;3.12;50.38
59154;BME280;44935;48.944;9.418;2023-01-31T06:49:52;99667.67;;;3.44;50.10
59154;BME280;44935;48.944;9.418;2023-01-31T06:52:19;99667.60;;;3.64;49.83
59154;BME280;44935;48.944;9.418;2023-01-31T06:54:45;99659.82;;;3.17;49.85
59154;BME280;44935;48.944;9.418;2023-01-31T06:57:12;99662.57;;;3.51;49.15
59154;BME280;44935;48.944;9.418;2023-01-31T06:59:39;99669.58;;;2.79;50.38
59154;BME280;44935;48.944;9.418;2023-01-31T07:02:07;99668.15;;;2.26;51.27
59154;BME280;44935;48.944;9.418;2023-01-31T07:04:35;99666.12;;;2.18;51.61
59154;BME280;44935;48.944;9.418;2023-01-31T07:07:02;99667.36;;;3.01;50.31
59154;BME280;44935;48.944;9.418;2023-01-31T07:09:29;99660.94;;;3.91;49.34
59154;BME280;44935;48.944;9.418;2023-01-31T07:11:55;99664.32;;;2.91;50.39
59154;BME280;44935;48.944;9.418;2023-01-31T07:14:22;99661.04;;;3.87;47.24
59154;BME280;44935;48.944;9.418;2023-01-31T07:16:50;99669.21;;;4.64;45.49
59154;BME280;44935;48.944;9.418;2023-01-31T07:19:17;99673.91;;;4.32;46.05
59154;BME280;44935;48.944;9.418;2023-01-31T07:21:45;99670.74;;;4.52;46.13
59154;BME280;44935;48.944;9.418;2023-01-31T07:24:12;99672.77;;;4.05;46.27
59154;BME280;44935;48.944;9.418;2023-01-31T07:26:39;99669.74;;;3.47;47.32
59154;BME280;44935;48.944;9.418;2023-01-31T07:29:06;99668.01;;;3.81;47.04
59154;BME280;44935;48.944;9.418;2023-01-31T07:31:33;99676.68;;;3.91;46.21
59154;BME280;44935;48.944;9.418;2023-01-31T07:34:00;99672.31;;;3.20;48.16
59154;BME280;44935;48.944;9.418;2023-01-31T07:36:27;99672.85;;;4.25;46.41
59154;BME280;44935;48.944;9.418;2023-01-31T07:38:54;99685.17;;;4.85;45.44
59154;BME280;44935;48.944;9.418;2023-01-31T07:41:21;99687.82;;;5.04;44.67
59154;BME280;44935;48.944;9.418;2023-01-31T07:43:48;99688.79;;;4.96;44.94
59154;BME280;44935;48.944;9.418;2023-01-31T07:46:17;99684.95;;;5.17;44.70
59154;BME280;44935;48.944;9.418;2023-01-31T07:48:44;99693.10;;;4.75;44.84
59154;BME280;44935;48.944;9.418;2023-01-31T07:51:11;99690.31;;;4.32;45.63
59154;BME280;44935;48.944;9.418;2023-01-31T07:53:39;99690.13;;;4.23;45.98
59154;BME280;44935;48.944;9.418;2023-01-31T07:56:08;99700.42;;;4.09;45.46
59154;BME280;44935;48.944;9.418;2023-01-31T07:58:35;99695.62;;;4.47;45.06
59154;BME280;44935;48.944;9.418;2023-01-31T08:01:03;99697.73;;;4.61;44.74
59154;BME280;44935;48.944;9.418;2023-01-31T08:03:30;99695.01;;;4.55;45.00
59154;BME280;44935;48.944;9.418;2023-01-31T08:05:57;99690.90;;;4.12;45.92
59154;BME280;44935;48.944;9.418;2023-01-31T08:08:25;99689.94;;;3.84;46.67
59154;BME280;44935;48.944;9.418;2023-01-31T08:10:52;99695.06;;;3.85;47.77
59154;BME280;44935;48.944;9.418;2023-01-31T08:13:19;99698.64;;;3.67;47.78
59154;BME280;44935;48.944;9.418;2023-01-31T08:15:46;99697.90;;;3.31;48.36
59154;BME280;44935;48.944;9.418;2023-01-31T08:18:13;99694.29;;;3.69;48.58
59154;BME280;44935;48.944;9.418;2023-01-31T08:20:40;99699.95;;;3.51;47.96
59154;BME280;44935;48.944;9.418;2023-01-31T08:23:07;99705.96;;;2.79;49.11
59154;BME280;44935;48.944;9.418;2023-01-31T08:25:34;99707.10;;;2.76;49.66
59154;BME280;44935;48.944;9.418;2023-01-31T08:28:01;99708.73;;;2.89;49.68
59154;BME280;44935;48.944;9.418;2023-01-31T08:30:28;99707.39;;;3.15;48.75
59154;BME280;44935;48.944;9.418;2023-01-31T08:32:56;99709.60;;;3.23;47.99
59154;BME280;44935;48.944;9.418;2023-01-31T08:35:24;99710.68;;;3.05;48.71
59154;BME280;44935;48.944;9.418;2023-01-31T08:37:51;99706.23;;;3.69;47.23
59154;BME280;44935;48.944;9.418;2023-01-31T08:40:18;99708.65;;;4.25;46.08
59154;BME280;44935;48.944;9.418;2023-01-31T08:42:53;99705.95;;;4.12;46.16
59154;BME280;44935;48.944;9.418;2023-01-31T08:45:20;99703.03;;;3.04;48.56
59154;BME280;44935;48.944;9.418;2023-01-31T08:47:47;99700.05;;;3.24;48.37
59154;BME280;44935;48.944;9.418;2023-01-31T08:50:20;99696.27;;;3.11;49.11
59154;BME280;44935;48.944;9.418;2023-01-31T08:52:51;99700.12;;;2.82;49.21
59154;BME280;44935;48.944;9.418;2023-01-31T08:55:19;99698.46;;;2.71;49.87
59154;BME280;44935;48.944;9.418;2023-01-31T08:57:47;99690.43;;;4.29;47.41
59154;BME280;44935;48.944;9.418;2023-01-31T09:00:15;99697.15;;;4.22;46.72
59154;BME280;44935;48.944;9.418;2023-01-31T09:02:43;99694.77;;;4.63;46.26
59154;BME280;44935;48.944;9.418;2023-01-31T09:05:11;99691.67;;;3.80;47.13
59154;BME280;44935;48.944;9.418;2023-01-31T09:07:38;99697.25;;;4.44;46.37
59154;BME280;44935;48.944;9.418;2023-01-31T09:10:06;99700.86;;;4.68;45.09
59154;BME280;44935;48.944;9.418;2023-01-31T09:12:34;99698.08;;;4.55;45.45
59154;BME280;44935;48.944;9.418;2023-01-31T09:15:00;99700.49;;;4.80;45.36
59154;BME280;44935;48.944;9.418;2023-01-31T09:17:28;99694.24;;;3.92;47.72
59154;BME280;44935;48.944;9.418;2023-01-31T09:19:55;99695.80;;;3.47;49.23
59154;BME280;44935;48.944;9.418;2023-01-31T09:22:23;99696.59;;;3.52;49.17
59154;BME280;44935;48.944;9.418;2023-01-31T09:24:50;99696.66;;;4.32;47.72
59154;BME280;44935;48.944;9.418;2023-01-31T09:27:17;99696.43;;;4.12;46.95
59154;BME280;44935;48.944;9.418;2023-01-31T09:29:43;99691.98;;;4.36;47.36
59154;BME280;44935;48.944;9.418;2023-01-31T09:32:10;99687.76;;;4.23;46.99
59154;BME280;44935;48.944;9.418;2023-01-31T09:34:37;99681.93;;;4.89;46.25
59154;BME280;44935;48.944;9.418;2023-01-31T09:37:04;99677.30;;;4.08;47.43
59154;BME280;44935;48.944;9.418;2023-01-31T09:39:31;99672.42;;;3.66;48.35
59154;BME280;44935;48.944;9.418;2023-01-31T09:42:03;99679.61;;;3.06;49.81
59154;BME280;44935;48.944;9.418;2023-01-31T09:44:39;99681.39;;;3.54;48.86
59154;BME280;44935;48.944;9.418;2023-01-31T09:47:15;99684.96;;;3.42;48.95
59154;BME280;44935;48.944;9.418;2023-01-31T09:49:48;99686.00;;;3.66;47.80
59154;BME280;44935;48.944;9.418;2023-01-31T09:52:17;99688.54;;;3.79;47.25
59154;BME280;44935;48.944;9.418;2023-01-31T09:54:45;99683.97;;;3.61;48.08
59154;BME280;44935;48.944;9.418;2023-01-31T09:57:22;99681.14;;;3.95;47.65
59154;BME280;44935;48.944;9.418;2023-01-31T09:59:58;99683.17;;;4.43;46.70
59154;BME280;44935;48.944;9.418;2023-01-31T10:02:45;99693.88;;;4.17;47.64
59154;BME280;44935;48.944;9.418;2023-01-31T10:05:25;99695.26;;;4.70;46.58
59154;BME280;44935;48.944;9.418;2023-01-31T10:08:03;99687.38;;;3.44;47.93
59154;BME280;44935;48.944;9.418;2023-01-31T10:10:37;99688.86;;;3.67;48.78
59154;BME280;44935;48.944;9.418;2023-01-31T10:13:10;99686.91;;;3.33;49.30
59154;BME280;44935;48.944;9.418;2023-01-31T10:15:42;99685.98;;;3.68;48.63
59154;BME280;44935;48.944;9.418;2023-01-31T10:18:12;99683.06;;;4.22;47.76
59154;BME280;44935;48.944;9.418;2023-01-31T10:20:46;99677.72;;;3.49;48.29
59154;BME280;44935;48.944;9.418;2023-01-31T10:23:20;99677.24;;;4.65;46.22
59154;BME280;44935;48.944;9.418;2023-01-31T10:25:53;99668.97;;;4.51;46.72
59154;BME280;44935;48.944;9.418;2023-01-31T10:28:24;99655.05;;;3.75;47.78
59154;BME280;44935;48.944;9.418;2023-01-31T10:30:57;99653.58;;;3.90;47.84
59154;BME280;44935;48.944;9.418;2023-01-31T10:33:34;99660.29;;;4.31;46.76
59154;BME280;44935;48.944;9.418;2023-01-31T10:36:08;99674.09;;;4.23;47.13
59154;BME280;44935;48.944;9.418;2023-01-31T10:38:42;99678.77;;;4.02;47.35
59154;BME280;44935;48.944;9.418;2023-01-31T10:41:30;99679.86;;;3.52;48.39
59154;BME280;44935;48.944;9.418;2023-01-31T10:44:04;99679.00;;;4.20;47.43
59154;BME280;44935;48.944;9.418;2023-01-31T10:46:32;99677.18;;;3.11;49.74
59154;BME280;44935;48.944;9.418;2023-01-31T10:48:59;99675.10;;;3.64;48.92
59154;BME280;44935;48.944;9.418;2023-01-31T10:51:41;99675.67;;;4.61;47.16
59154;BME280;44935;48.944;9.418;2023-01-31T10:54:24;99673.14;;;4.83;46.88
59154;BME280;44935;48.944;9.418;2023-01-31T10:56:56;99665.08;;;4.56;47.02
59154;BME280;44935;48.944;9.418;2023-01-31T10:59:29;99662.13;;;3.85;48.67
59154;BME280;44935;48.944;9.418;2023-01-31T11:01:57;99665.64;;;4.32;48.30
59154;BME280;44935;48.944;9.418;2023-01-31T11:04:29;99668.71;;;5.05;47.11
59154;BME280;44935;48.944;9.418;2023-01-31T11:06:57;99661.29;;;4.41;48.17
59154;BME280;44935;48.944;9.418;2023-01-31T11:09:28;99654.76;;;4.27;48.20
59154;BME280;44935;48.944;9.418;2023-01-31T11:11:58;99636.00;;;3.97;49.07
59154;BME280;44935;48.944;9.418;2023-01-31T11:14:25;99625.32;;;3.83;49.32
59154;BME280;44935;48.944;9.418;2023-01-31T11:16:58;99626.99;;;4.78;47.71
59154;BME280;44935;48.944;9.418;2023-01-31T11:19:32;99629.16;;;4.10;47.98
59154;BME280;44935;48.944;9.418;2023-01-31T11:22:01;99640.29;;;3.69;48.79
59154;BME280;44935;48.944;9.418;2023-01-31T11:24:32;99645.75;;;3.70;49.31
59154;BME280;44935;48.944;9.418;2023-01-31T11:27:03;99640.83;;;3.26;51.10
59154;BME280;44935;48.944;9.418;2023-01-31T11:29:33;99629.54;;;3.48;50.28
59154;BME280;44935;48.944;9.418;2023-01-31T11:32:04;99625.11;;;3.59;49.56
59154;BME280;44935;48.944;9.418;2023-01-31T11:34:32;99619.57;;;3.69;49.62
59154;BME280;44935;48.944;9.418;2023-01-31T11:37:05;99607.44;;;3.31;50.05
59154;BME280;44935;48.944;9.418;2023-01-31T11:39:33;99591.12;;;3.47;50.51
59154;BME280;44935;48.944;9.418;2023-01-31T11:42:05;99590.89;;;3.70;49.39
59154;BME280;44935;48.944;9.418;2023-01-31T11:44:33;99594.39;;;4.06;48.81
59154;BME280;44935;48.944;9.418;2023-01-31T11:47:03;99590.73;;;4.31;48.06
59154;BME280;44935;48.944;9.418;2023-01-31T11:49:32;99587.87;;;4.34;48.58
59154;BME280;44935;48.944;9.418;2023-01-31T11:52:10;99587.37;;;3.42;50.08
59154;BME280;44935;48.944;9.418;2023-01-31T11:54:40;99591.60;;;3.22;50.33
59154;BME280;44935;48.944;9.418;2023-01-31T11:57:13;99589.46;;;2.58;51.78
59154;BME280;44935;48.944;9.418;2023-01-31T11:59:40;99579.99;;;3.20;50.76
59154;BME280;44935;48.944;9.418;2023-01-31T12:02:21;99580.40;;;3.78;49.35
59154;BME280;44935;48.944;9.418;2023-01-31T12:04:50;99575.73;;;3.31;51.13
59154;BME280;44935;48.944;9.418;2023-01-31T12:07:22;99567.73;;;3.28;50.04
59154;BME280;44935;48.944;9.418;2023-01-31T12:09:51;99556.18;;;3.49;49.50
59154;BME280;44935;48.944;9.418;2023-01-31T12:12:26;99551.74;;;3.56;51.04
59154;BME280;44935;48.944;9.418;2023-01-31T12:14:57;99546.55;;;3.70;50.15
59154;BME280;44935;48.944;9.418;2023-01-31T12:17:28;99536.80;;;3.29;50.25
59154;BME280;44935;48.944;9.418;2023-01-31T12:20:11;99526.83;;;3.25;49.61
59154;BME280;44935;48.944;9.418;2023-01-31T12:22:46;99530.94;;;3.92;48.98
59154;BME280;44935;48.944;9.418;2023-01-31T12:25:21;99529.82;;;3.68;49.08
59154;BME280;44935;48.944;9.418;2023-01-31T12:28:06;99529.42;;;3.91;48.48
59154;BME280;44935;48.944;9.418;2023-01-31T12:30:57;99523.03;;;3.31;48.13
59154;BME280;44935;48.944;9.418;2023-01-31T12:33:36;99523.93;;;3.25;49.20
59154;BME280;44935;48.944;9.418;2023-01-31T12:36:16;99514.77;;;2.68;50.07
59154;BME280;44935;48.944;9.418;2023-01-31T12:38:59;99509.63;;;2.94;49.29
59154;BME280;44935;48.944;9.418;2023-01-31T12:41:32;99503.40;;;4.13;47.05
59154;BME280;44935;48.944;9.418;2023-01-31T12:44:13;99503.74;;;3.78;47.51
59154;BME280;44935;48.944;9.418;2023-01-31T12:46:58;99489.53;;;3.34;47.62
59154;BME280;44935;48.944;9.418;2023-01-31T12:49:42;99480.68;;;2.80;49.91
59154;BME280;44935;48.944;9.418;2023-01-31T12:52:19;99477.69;;;1.95;51.33
59154;BME280;44935;48.944;9.418;2023-01-31T12:55:02;99472.66;;;2.54;50.59
59154;BME280;44935;48.944;9.418;2023-01-31T12:57:34;99476.85;;;2.69;50.52
59154;BME280;44935;48.944;9.418;2023-01-31T13:00:17;99478.84;;;2.41;50.46
59154;BME280;44935;48.944;9.418;2023-01-31T13:02:59;99484.94;;;3.03;49.15
59154;BME280;44935;48.944;9.418;2023-01-31T13:05:35;99478.22;;;2.62;50.09
59154;BME280;44935;48.944;9.418;2023-01-31T13:08:06;99476.74;;;2.02;50.75
59154;BME280;44935;48.944;9.418;2023-01-31T13:10:44;99472.24;;;1.91;50.76
59154;BME280;44935;48.944;9.418;2023-01-31T13:13:16;99470.47;;;2.24;50.08
59154;BME280;44935;48.944;9.418;2023-01-31T13:15:48;99470.86;;;1.85;51.08
59154;BME280;44935;48.944;9.418;2023-01-31T13:18:17;99462.83;;;1.74;51.20
59154;BME280;44935;48.944;9.418;2023-01-31T13:20:49;99454.08;;;2.25;50.77
59154;BME280;44935;48.944;9.418;2023-01-31T13:23:21;99448.01;;;2.27;50.85
59154;BME280;44935;48.944;9.418;2023-01-31T13:25:53;99434.92;;;2.17;50.67
59154;BME280;44935;48.944;9.418;2023-01-31T13:28:27;99442.88;;;2.56;49.68